createdAt,value
2018-12-04T00:01:33.002Z,389.77
2018-12-04T00:04:42.528Z,393.70
2018-12-04T00:07:31.757Z,381.27
2018-12-04T00:10:20.982Z,383.80
2018-12-04T00:19:11.822Z,360.10
2018-12-04T00:22:21.167Z,357.47
2018-12-04T00:28:18.077Z,360.10
2018-12-04T00:30:59.693Z,338.77
2018-12-04T00:40:04.515Z,355.50
2018-12-04T00:45:45.000Z,363.50
2018-12-04T00:48:54.416Z,354.40
2018-12-04T00:52:03.933Z,368.70
2018-12-04T01:13:44.027Z,323.10
2018-12-04T01:19:36.601Z,315.50
2018-12-04T01:34:40.740Z,270.63
2018-12-04T01:37:50.312Z,263.73
2018-12-04T01:40:39.483Z,261.00
2018-12-04T01:43:23.788Z,259.90
2018-12-04T01:46:07.682Z,245.93
2018-12-04T01:48:57.035Z,258.30
2018-12-04T02:26:30.393Z,243.93
2018-12-04T02:29:14.894Z,247.60
2018-12-04T02:41:19.587Z,260.90
2018-12-04T03:05:55.324Z,259.20
2018-12-04T03:14:58.887Z,242.07
2018-12-04T03:52:10.775Z,244.00
2018-12-04T03:55:00.146Z,246.07
2018-12-04T03:58:09.667Z,248.87
2018-12-04T04:00:40.116Z,245.30
2018-12-04T04:03:10.517Z,254.70
2018-12-04T04:06:43.930Z,236.67
2018-12-04T04:09:13.585Z,241.33
2018-12-04T04:11:43.274Z,233.43
2018-12-04T04:14:12.946Z,231.13
2018-12-04T04:16:42.627Z,232.20
2018-12-04T04:19:12.283Z,234.40
2018-12-04T04:21:42.074Z,244.40
2018-12-04T04:24:12.533Z,235.50
2018-12-04T04:26:42.365Z,252.30
2018-12-04T04:29:11.980Z,249.07
2018-12-04T04:31:41.769Z,245.73
2018-12-04T04:34:11.615Z,234.03
2018-12-04T04:36:41.454Z,238.87
2018-12-04T04:39:11.071Z,244.97
2018-12-04T04:41:40.961Z,227.57
2018-12-04T04:44:10.653Z,222.83
2018-12-04T04:46:40.387Z,206.97
2018-12-04T04:49:09.997Z,214.20
2018-12-04T04:51:39.901Z,221.20
2018-12-04T04:54:09.365Z,205.00
2018-12-04T04:56:39.195Z,220.00
2018-12-04T04:59:08.852Z,194.17
2018-12-04T05:01:38.516Z,189.83
2018-12-04T05:04:08.351Z,194.43
2018-12-04T05:06:38.136Z,210.83
2018-12-04T05:09:08.553Z,212.50
2018-12-04T05:11:38.292Z,206.50
2018-12-04T05:14:08.412Z,189.03
2018-12-04T05:16:38.230Z,187.77
2018-12-04T05:19:07.914Z,167.13
2018-12-04T05:21:37.492Z,176.80
2018-12-04T05:24:07.134Z,160.47
2018-12-04T05:26:36.815Z,156.43
2018-12-04T05:29:06.529Z,166.73
2018-12-04T05:31:36.511Z,155.20
2018-12-04T05:34:06.148Z,164.00
2018-12-04T05:36:35.869Z,159.67
2018-12-04T05:39:07.957Z,160.43
2018-12-04T05:41:37.607Z,156.83
2018-12-04T05:44:07.170Z,157.30
2018-12-04T05:46:36.871Z,165.90
2018-12-04T05:49:06.681Z,161.57
2018-12-04T05:51:36.432Z,172.07
2018-12-04T05:54:08.723Z,168.67
2018-12-04T05:56:38.532Z,158.23
2018-12-04T05:59:08.312Z,181.83
2018-12-04T06:01:38.199Z,187.63
2018-12-04T06:04:07.899Z,175.80
2018-12-04T06:06:37.879Z,190.27
2018-12-04T06:09:08.465Z,198.00
2018-12-04T06:11:38.911Z,178.70
2018-12-04T06:14:08.677Z,192.73
2018-12-04T06:16:38.485Z,184.97
2018-12-04T06:19:08.887Z,173.87
2018-12-04T06:21:38.542Z,181.53
2018-12-04T06:24:08.401Z,185.07
2018-12-04T06:26:38.240Z,206.23
2018-12-04T06:29:07.906Z,193.43
2018-12-04T06:31:37.888Z,182.87
2018-12-04T06:34:07.561Z,180.60
2018-12-04T06:36:37.380Z,182.73
2018-12-04T06:39:08.640Z,189.87
2018-12-04T06:41:38.280Z,197.57
2018-12-04T06:44:08.078Z,181.77
2018-12-04T06:46:38.184Z,185.00
2018-12-04T06:49:07.996Z,188.17
2018-12-04T06:51:37.794Z,183.77
2018-12-04T06:54:07.505Z,209.03
2018-12-04T06:56:37.199Z,192.03
2018-12-04T06:59:06.947Z,186.10
2018-12-04T07:01:36.638Z,205.23
2018-12-04T07:04:06.510Z,178.63
2018-12-04T07:06:36.370Z,192.17
2018-12-04T07:09:08.584Z,182.00
2018-12-04T07:11:38.661Z,189.60
2018-12-04T07:14:08.398Z,178.20
2018-12-04T07:16:37.936Z,189.40
2018-12-04T07:19:07.850Z,182.63
2018-12-04T07:21:37.668Z,192.03
2018-12-04T07:24:08.183Z,189.67
2018-12-04T07:26:37.914Z,206.27
2018-12-04T07:29:07.502Z,203.00
2018-12-04T07:31:37.328Z,196.63
2018-12-04T07:34:07.470Z,177.37
2018-12-04T07:36:37.187Z,189.13
2018-12-04T07:39:08.559Z,192.20
2018-12-04T07:41:38.542Z,198.17
2018-12-04T07:44:08.347Z,189.80
2018-12-04T07:46:38.210Z,204.83
2018-12-04T07:49:08.063Z,198.10
2018-12-04T07:51:37.736Z,201.37
2018-12-04T07:54:07.745Z,205.40
2018-12-04T07:56:37.445Z,214.30
2018-12-04T07:59:07.145Z,212.23
2018-12-04T08:01:36.846Z,220.87
2018-12-04T08:04:06.747Z,222.87
2018-12-04T08:06:36.635Z,208.93
2018-12-04T08:09:10.005Z,196.77
2018-12-04T08:11:39.701Z,200.53
2018-12-04T08:14:09.356Z,190.33
2018-12-04T08:16:39.133Z,188.77
2018-12-04T08:19:08.868Z,246.93
2018-12-04T08:21:38.705Z,261.67
2018-12-04T08:24:08.306Z,208.23
2018-12-04T08:26:39.719Z,221.83
2018-12-04T08:32:31.166Z,217.87
2018-12-04T08:35:00.752Z,222.70
2018-12-04T08:37:30.371Z,232.63
2018-12-04T08:40:00.132Z,219.63
2018-12-04T08:42:30.718Z,238.47
2018-12-04T08:45:00.431Z,214.40
2018-12-04T08:47:30.122Z,207.30
2018-12-04T08:50:00.560Z,219.93
2018-12-04T08:52:30.245Z,216.87
2018-12-04T08:55:00.314Z,204.83
2018-12-04T08:57:29.979Z,200.63
2018-12-04T08:59:59.480Z,187.47
2018-12-04T09:02:29.126Z,194.13
2018-12-04T09:04:58.777Z,189.53
2018-12-04T09:07:28.505Z,177.43
2018-12-04T09:09:58.315Z,202.90
2018-12-04T09:12:27.878Z,177.83
2018-12-04T09:14:57.586Z,174.40
2018-12-04T09:17:27.673Z,183.63
2018-12-04T09:19:57.355Z,180.27
2018-12-04T09:22:27.244Z,185.83
2018-12-04T09:24:57.053Z,190.80
2018-12-04T09:27:26.733Z,180.80
2018-12-04T09:29:56.363Z,182.70
2018-12-04T09:32:26.209Z,187.27
2018-12-04T09:34:55.858Z,194.03
2018-12-04T09:37:25.569Z,185.20
2018-12-04T09:39:55.252Z,194.30
2018-12-04T09:42:24.925Z,187.30
2018-12-04T09:44:54.554Z,194.83
2018-12-04T09:47:23.990Z,214.33
2018-12-04T09:49:53.636Z,229.77
2018-12-04T09:52:23.350Z,209.57
2018-12-04T09:54:53.077Z,208.90
2018-12-04T09:57:22.695Z,209.00
2018-12-04T09:59:52.255Z,208.30
2018-12-04T10:02:21.865Z,208.80
2018-12-04T10:04:51.572Z,208.90
2018-12-04T10:07:21.155Z,212.80
2018-12-04T10:09:50.966Z,201.43
2018-12-04T10:12:21.261Z,199.23
2018-12-04T10:14:50.983Z,194.30
2018-12-04T10:17:22.301Z,197.30
2018-12-04T10:19:51.895Z,203.47
2018-12-04T10:22:22.388Z,206.40
2018-12-04T10:24:51.918Z,199.93
2018-12-04T10:27:21.812Z,199.27
2018-12-04T10:29:51.562Z,177.60
2018-12-04T10:32:21.232Z,191.40
2018-12-04T10:34:50.868Z,174.60
2018-12-04T10:37:20.328Z,171.57
2018-12-04T10:39:49.983Z,177.63
2018-12-04T10:42:19.629Z,166.67
2018-12-04T10:44:49.523Z,167.13
2018-12-04T10:47:19.085Z,172.77
2018-12-04T10:49:48.704Z,176.40
2018-12-04T10:52:18.331Z,169.50
2018-12-04T10:54:48.066Z,169.90
2018-12-04T10:57:17.556Z,151.47
2018-12-04T10:59:47.138Z,154.27
2018-12-04T11:02:21.740Z,154.53
2018-12-04T11:04:51.538Z,159.93
2018-12-04T11:07:21.191Z,152.37
2018-12-04T11:09:50.813Z,164.50
2018-12-04T11:12:20.393Z,147.93
2018-12-04T11:14:50.103Z,145.40
2018-12-04T11:17:19.825Z,128.93
2018-12-04T11:19:49.606Z,150.47
2018-12-04T11:22:19.223Z,132.27
2018-12-04T11:24:48.919Z,117.20
2018-12-04T11:27:18.646Z,107.20
2018-12-04T11:29:48.236Z,120.43
2018-12-04T11:32:17.850Z,113.10
2018-12-04T11:34:47.425Z,124.00
2018-12-04T11:37:17.001Z,109.20
2018-12-04T11:39:46.519Z,120.33
2018-12-04T11:42:16.697Z,123.67
2018-12-04T11:44:46.441Z,131.37
2018-12-04T11:47:16.630Z,119.90
2018-12-04T11:49:46.193Z,120.50
2018-12-04T11:52:15.921Z,123.10
2018-12-04T11:54:45.465Z,122.23
2018-12-04T11:57:15.284Z,134.23
2018-12-04T11:59:45.018Z,137.67
2018-12-04T12:07:20.632Z,138.80
2018-12-04T12:09:49.741Z,151.07
2018-12-04T12:12:19.387Z,154.83
2018-12-04T12:14:49.275Z,148.40
2018-12-04T12:17:18.905Z,148.47
2018-12-04T12:19:49.105Z,139.57
2018-12-04T12:22:19.048Z,150.37
2018-12-04T12:24:48.720Z,158.00
2018-12-04T12:27:18.437Z,160.27
2018-12-04T12:29:48.059Z,151.87
2018-12-04T12:32:17.597Z,134.77
2018-12-04T12:34:47.281Z,140.10
2018-12-04T12:37:16.850Z,134.43
2018-12-04T12:39:46.484Z,146.23
2018-12-04T12:42:16.486Z,135.50
2018-12-04T12:44:46.254Z,142.50
2018-12-04T12:47:15.847Z,130.87
2018-12-04T12:49:45.882Z,131.10
2018-12-04T12:52:15.627Z,134.63
2018-12-04T12:54:45.219Z,132.07
2018-12-04T12:57:14.801Z,142.63
2018-12-04T12:59:44.582Z,135.50
2018-12-04T13:02:14.297Z,148.47
2018-12-04T13:04:43.918Z,141.17
2018-12-04T13:07:14.193Z,135.47
2018-12-04T13:09:43.714Z,137.30
2018-12-04T13:12:13.386Z,138.50
2018-12-04T13:14:42.929Z,138.27
2018-12-04T13:17:12.468Z,142.80
2018-12-04T13:19:42.032Z,146.43
2018-12-04T13:22:11.699Z,150.47
2018-12-04T13:24:41.643Z,154.43
2018-12-04T13:27:11.219Z,153.87
2018-12-04T13:29:40.833Z,147.63
2018-12-04T13:32:10.520Z,156.40
2018-12-04T13:34:41.119Z,152.27
2018-12-04T13:37:10.721Z,138.43
2018-12-04T13:39:40.815Z,146.40
2018-12-04T13:42:11.894Z,156.40
2018-12-04T13:44:41.651Z,154.00
2018-12-04T13:47:11.733Z,153.50
2018-12-04T13:49:41.527Z,150.83
2018-12-04T13:52:12.884Z,150.83
2018-12-04T13:54:42.902Z,153.30
2018-12-04T13:57:12.640Z,150.37
2018-12-04T13:59:42.574Z,149.43
2018-12-04T14:02:12.387Z,149.77
2018-12-04T14:04:41.986Z,153.67
2018-12-04T14:07:11.734Z,156.53
2018-12-04T14:09:41.448Z,144.73
2018-12-04T14:12:11.077Z,150.47
2018-12-04T14:14:40.718Z,153.93
2018-12-04T14:17:10.293Z,153.60
2018-12-04T14:19:40.050Z,154.47
2018-12-04T14:22:09.645Z,151.00
2018-12-04T14:24:39.279Z,156.17
2018-12-04T14:27:08.994Z,151.60
2018-12-04T14:29:37.984Z,178.97
2018-12-04T14:32:07.868Z,166.27
2018-12-04T14:34:37.386Z,166.20
2018-12-04T14:37:07.034Z,171.87
2018-12-04T14:39:36.653Z,185.63
2018-12-04T14:42:06.293Z,187.07
2018-12-04T14:44:36.157Z,190.50
2018-12-04T14:47:05.874Z,213.90
2018-12-04T14:49:35.585Z,196.07
2018-12-04T14:52:05.431Z,178.37
2018-12-04T14:54:35.271Z,185.23
2018-12-04T14:57:05.019Z,186.60
2018-12-04T14:59:34.717Z,200.97
2018-12-04T15:02:04.512Z,181.67
2018-12-04T15:04:34.028Z,193.03
2018-12-04T15:07:03.839Z,182.57
2018-12-04T15:09:33.772Z,205.17
2018-12-04T15:12:10.718Z,212.13
2018-12-04T15:14:40.136Z,190.93
2018-12-04T15:17:09.999Z,186.67
2018-12-04T15:19:39.788Z,205.53
2018-12-04T15:22:09.550Z,210.13
2018-12-04T15:24:39.287Z,183.40
2018-12-04T15:27:09.203Z,183.47
2018-12-04T15:29:38.942Z,187.70
2018-12-04T15:32:08.532Z,188.07
2018-12-04T15:34:38.029Z,192.07
2018-12-04T15:37:07.523Z,182.33
2018-12-04T15:39:37.087Z,208.80
2018-12-04T15:42:06.737Z,206.33
2018-12-04T15:44:36.419Z,204.67
2018-12-04T15:47:06.191Z,208.90
2018-12-04T15:49:35.906Z,188.17
2018-12-04T15:52:05.567Z,215.30
2018-12-04T15:54:35.217Z,189.73
2018-12-04T15:57:05.055Z,199.37
2018-12-04T15:59:34.802Z,200.60
2018-12-04T16:02:04.549Z,209.83
2018-12-04T16:04:34.097Z,198.73
2018-12-04T16:07:03.843Z,206.63
2018-12-04T16:09:33.365Z,214.63
2018-12-04T16:12:03.574Z,219.60
2018-12-04T16:14:33.231Z,246.57
2018-12-04T16:17:02.918Z,231.57
2018-12-04T16:19:32.775Z,228.83
2018-12-04T16:22:02.404Z,230.20
2018-12-04T16:24:32.103Z,213.07
2018-12-04T16:27:01.703Z,227.53
2018-12-04T16:29:31.215Z,232.77
2018-12-04T16:32:01.098Z,244.10
2018-12-04T16:34:30.788Z,268.60
2018-12-04T16:37:00.282Z,274.67
2018-12-04T16:39:29.744Z,274.10
2018-12-04T16:41:59.427Z,261.77
2018-12-04T16:44:29.187Z,222.77
2018-12-04T16:46:58.947Z,230.90
2018-12-04T16:49:28.679Z,213.37
2018-12-04T16:51:58.231Z,234.67
2018-12-04T16:54:27.894Z,199.13
2018-12-04T16:57:28.194Z,205.83
2018-12-04T16:59:57.874Z,207.10
2018-12-04T17:02:27.566Z,213.47
2018-12-04T17:04:57.439Z,223.30
2018-12-04T17:07:27.086Z,244.70
2018-12-04T17:09:56.665Z,226.47
2018-12-04T17:12:26.298Z,220.43
2018-12-04T17:14:55.711Z,226.97
2018-12-04T17:17:25.792Z,242.17
2018-12-04T17:19:55.742Z,253.33
2018-12-04T17:22:25.254Z,235.13
2018-12-04T17:24:55.258Z,237.07
2018-12-04T17:27:24.934Z,230.20
2018-12-04T17:29:54.560Z,232.77
2018-12-04T17:32:24.212Z,244.73
2018-12-04T17:34:54.014Z,233.80
2018-12-04T17:37:23.736Z,256.03
2018-12-04T17:39:54.158Z,237.90
2018-12-04T17:42:23.804Z,222.77
2018-12-04T17:44:53.466Z,240.87
2018-12-04T17:47:23.114Z,288.03
2018-12-04T17:49:52.781Z,333.37
2018-12-04T17:52:22.454Z,345.83
2018-12-04T17:54:52.182Z,339.87
2018-12-04T17:57:21.937Z,328.23
2018-12-04T17:59:52.542Z,315.47
2018-12-04T18:02:22.138Z,327.40
2018-12-04T18:04:51.910Z,312.97
2018-12-04T18:07:21.607Z,309.30
2018-12-04T18:09:51.061Z,295.97
2018-12-04T18:12:20.732Z,300.77
2018-12-04T18:14:50.452Z,273.80
2018-12-04T18:17:20.869Z,299.90
2018-12-04T18:19:50.491Z,286.67
2018-12-04T18:22:20.498Z,294.80
2018-12-04T18:24:50.550Z,290.93
2018-12-04T18:27:20.220Z,275.23
2018-12-04T18:29:49.739Z,258.10
2018-12-04T18:32:19.424Z,283.43
2018-12-04T18:34:49.043Z,261.80
2018-12-04T18:37:18.842Z,267.83
2018-12-04T18:39:48.526Z,261.17
2018-12-04T18:42:18.048Z,290.73
2018-12-04T18:44:47.778Z,265.07
2018-12-04T18:47:17.368Z,272.03
2018-12-04T18:49:47.030Z,279.37
2018-12-04T18:52:16.570Z,307.80
2018-12-04T18:54:46.802Z,290.20
2018-12-04T18:57:16.385Z,287.40
2018-12-04T18:59:46.099Z,262.77
2018-12-04T19:02:15.881Z,268.00
2018-12-04T19:04:45.598Z,296.47
2018-12-04T19:07:15.287Z,296.53
2018-12-04T19:09:46.107Z,282.67
2018-12-04T19:12:15.688Z,285.80
2018-12-04T19:14:45.399Z,271.13
2018-12-04T19:17:15.027Z,258.10
2018-12-04T19:19:44.859Z,266.30
2018-12-04T19:22:14.565Z,287.73
2018-12-04T19:24:44.170Z,281.90
2018-12-04T19:27:13.754Z,267.77
2018-12-04T19:29:43.427Z,263.33
2018-12-04T19:32:13.073Z,254.40
2018-12-04T19:34:42.838Z,246.93
2018-12-04T19:37:12.536Z,273.40
2018-12-04T19:39:42.204Z,287.17
2018-12-04T19:42:12.014Z,296.57
2018-12-04T19:44:41.847Z,300.57
2018-12-04T19:47:11.471Z,298.47
2018-12-04T19:49:41.437Z,364.03
2018-12-04T19:52:11.461Z,345.10
2018-12-04T19:54:41.129Z,333.13
2018-12-04T19:57:10.901Z,291.80
2018-12-04T19:59:40.518Z,311.00
2018-12-04T20:02:10.264Z,300.17
2018-12-04T20:04:39.796Z,302.73
2018-12-04T20:07:09.247Z,299.30
2018-12-04T20:09:38.879Z,314.67
2018-12-04T20:12:08.708Z,312.23
2018-12-04T20:14:38.757Z,311.23
2018-12-04T20:17:08.362Z,320.40
2018-12-04T20:19:38.477Z,315.37
2018-12-04T20:22:08.050Z,312.07
2018-12-04T20:24:37.654Z,302.53
2018-12-04T20:27:07.245Z,312.47
2018-12-04T20:29:36.806Z,311.57
2018-12-04T20:35:27.798Z,302.73
2018-12-04T20:37:57.608Z,295.47
2018-12-04T20:43:42.268Z,272.47
2018-12-04T20:46:12.241Z,301.27
2018-12-04T20:48:42.212Z,308.50
2018-12-04T20:51:12.068Z,314.23
2018-12-04T20:53:41.989Z,335.97
2018-12-04T20:56:11.733Z,357.83
2018-12-04T20:58:41.437Z,359.00
2018-12-04T21:01:11.459Z,404.10
2018-12-04T21:03:41.464Z,402.17
2018-12-04T21:06:11.625Z,403.73
2018-12-04T21:08:41.399Z,419.23
2018-12-04T21:11:11.370Z,416.70
2018-12-04T21:13:41.155Z,394.13
2018-12-04T21:16:10.881Z,358.93
2018-12-04T21:18:40.794Z,332.37
2018-12-04T21:21:10.419Z,377.17
2018-12-04T21:23:40.106Z,340.60
2018-12-04T21:26:09.858Z,323.97
2018-12-04T21:28:41.800Z,334.97
2018-12-04T21:31:16.524Z,384.43
2018-12-04T21:33:51.164Z,380.97
2018-12-04T21:36:25.903Z,379.93
2018-12-04T21:39:04.815Z,373.83
2018-12-04T21:41:39.544Z,374.50
2018-12-04T21:45:14.362Z,385.77
2018-12-04T21:47:49.130Z,368.83
2018-12-04T21:50:18.826Z,386.40
2018-12-04T21:52:48.578Z,365.07
2018-12-04T21:55:18.268Z,369.30
2018-12-04T21:57:47.962Z,363.73
2018-12-04T22:00:19.637Z,389.93
2018-12-04T22:02:49.436Z,369.07
2018-12-04T22:05:19.060Z,381.70
2018-12-04T22:07:48.837Z,377.70
2018-12-04T22:10:18.601Z,381.10
2018-12-04T22:12:48.417Z,379.73
2018-12-04T22:15:18.457Z,372.83
2018-12-04T22:17:48.325Z,380.83
2018-12-04T22:20:18.116Z,365.93
2018-12-04T22:22:47.954Z,376.80
2018-12-04T22:25:17.851Z,361.37
2018-12-04T22:27:47.834Z,354.93
2018-12-04T22:30:17.488Z,371.97
2018-12-04T22:32:47.169Z,410.40
2018-12-04T22:35:16.935Z,409.60
2018-12-04T22:37:46.864Z,406.53
2018-12-04T22:40:16.596Z,395.10
2018-12-04T22:42:46.306Z,380.97
2018-12-04T22:45:21.208Z,372.47
2018-12-04T22:47:50.911Z,381.33
2018-12-04T22:50:20.637Z,368.17
2018-12-04T22:52:50.605Z,361.27
2018-12-04T22:55:20.409Z,327.03
2018-12-04T22:57:50.198Z,340.83
2018-12-04T23:00:37.422Z,331.50
2018-12-04T23:03:07.266Z,325.27
2018-12-04T23:05:36.972Z,334.30
2018-12-04T23:08:07.230Z,308.73
2018-12-04T23:10:36.886Z,292.83
2018-12-04T23:13:06.811Z,281.10
2018-12-04T23:15:36.582Z,278.93
2018-12-04T23:18:07.418Z,285.30
2018-12-04T23:20:37.393Z,240.20
2018-12-04T23:23:07.137Z,248.50
2018-12-04T23:25:36.656Z,256.77
2018-12-04T23:28:06.672Z,279.47
2018-12-04T23:30:36.416Z,276.37
2018-12-04T23:33:06.142Z,281.53
2018-12-04T23:35:36.158Z,289.93
2018-12-04T23:38:05.894Z,287.33
2018-12-04T23:40:35.803Z,286.33
2018-12-04T23:43:05.576Z,291.00
2018-12-04T23:45:35.882Z,244.50
2018-12-04T23:48:05.824Z,213.43
2018-12-04T23:50:35.724Z,219.33
2018-12-04T23:53:05.712Z,189.63
2018-12-04T23:55:35.772Z,177.10
2018-12-04T23:58:05.703Z,174.77
